createdAt,value
2023-08-14T02:52:31.206Z,67.95
2023-08-14T02:55:44.039Z,68.12
2023-08-14T02:58:22.814Z,68.79
2023-08-14T03:06:37.304Z,68.84
2023-08-14T03:09:29.586Z,68.78
2023-08-14T03:12:19.787Z,68.30
2023-08-14T03:15:27.730Z,68.15
2023-08-14T03:18:00.640Z,67.78
2023-08-14T03:20:32.122Z,67.80
2023-08-14T03:23:08.433Z,67.61
2023-08-14T03:25:39.554Z,67.63
2023-08-14T03:28:08.042Z,67.63
2023-08-14T03:30:42.242Z,67.18
2023-08-14T03:33:10.632Z,67.54
2023-08-14T03:35:38.932Z,67.93
2023-08-14T03:38:06.614Z,68.46
2023-08-14T03:40:34.114Z,68.66
2023-08-14T03:43:01.207Z,68.52
2023-08-14T03:45:29.017Z,68.87
2023-08-14T03:48:08.881Z,69.13
2023-08-14T03:50:48.916Z,69.24
2023-08-14T03:53:16.233Z,69.21
2023-08-14T03:55:45.962Z,69.45
2023-08-14T03:58:13.165Z,69.34
2023-08-14T04:00:40.372Z,69.34
2023-08-14T04:03:07.790Z,69.39
2023-08-14T04:05:41.525Z,69.44
2023-08-14T04:08:09.779Z,69.37
2023-08-14T04:10:38.465Z,69.55
2023-08-14T04:13:05.681Z,69.73
2023-08-14T04:15:33.391Z,69.48
2023-08-14T04:18:01.054Z,69.76
2023-08-14T04:20:28.384Z,70.04
2023-08-14T04:22:55.701Z,69.99
2023-08-14T04:25:23.224Z,69.52
2023-08-14T04:27:50.598Z,69.90
2023-08-14T04:30:18.121Z,69.81
2023-08-14T04:32:45.433Z,69.60
2023-08-14T04:35:13.016Z,69.26
2023-08-14T04:37:41.671Z,69.25
2023-08-14T04:40:09.623Z,69.59
2023-08-14T04:42:39.534Z,69.64
2023-08-14T04:45:08.663Z,69.73
2023-08-14T04:47:35.899Z,69.92
2023-08-14T04:50:04.833Z,69.82
2023-08-14T04:52:32.308Z,69.71
2023-08-14T04:54:59.532Z,69.60
2023-08-14T04:57:29.661Z,69.44
2023-08-14T04:59:57.261Z,69.46
2023-08-14T05:02:24.632Z,69.49
2023-08-14T05:04:51.841Z,69.48
2023-08-14T05:07:19.011Z,69.21
2023-08-14T05:09:49.774Z,69.59
2023-08-14T05:12:17.725Z,69.57
2023-08-14T05:14:45.113Z,69.36
2023-08-14T05:17:12.415Z,69.18
2023-08-14T05:19:39.665Z,68.58
2023-08-14T05:22:06.816Z,68.41
2023-08-14T05:24:34.037Z,66.63
2023-08-14T05:27:01.252Z,66.45
2023-08-14T05:29:28.600Z,65.87
2023-08-14T05:31:55.794Z,65.37
2023-08-14T05:34:22.961Z,64.36
2023-08-14T05:36:50.094Z,64.19
2023-08-14T05:39:19.678Z,63.97
2023-08-14T05:41:46.908Z,63.16
2023-08-14T05:44:14.028Z,63.45
2023-08-14T05:46:46.543Z,62.91
2023-08-14T05:49:15.396Z,62.86
2023-08-14T05:51:42.546Z,63.21
2023-08-14T05:54:10.286Z,63.11
2023-08-14T05:56:37.475Z,62.84
2023-08-14T05:59:04.997Z,62.30
2023-08-14T06:01:32.194Z,62.04
2023-08-14T06:03:59.441Z,61.61
2023-08-14T06:06:26.614Z,61.83
2023-08-14T06:08:53.852Z,62.03
2023-08-14T06:11:20.986Z,61.85
2023-08-14T06:13:48.134Z,61.30
2023-08-14T06:16:15.271Z,60.63
2023-08-14T06:18:42.325Z,60.33
2023-08-14T06:21:09.662Z,60.05
2023-08-14T06:23:37.034Z,59.73
2023-08-14T06:26:04.402Z,59.96
2023-08-14T06:28:31.535Z,60.09
2023-08-14T06:31:03.466Z,59.87
2023-08-14T06:33:30.780Z,60.42
2023-08-14T06:35:58.006Z,60.21
2023-08-14T06:38:25.308Z,60.11
2023-08-14T06:40:52.384Z,59.96
2023-08-14T06:43:19.938Z,59.74
2023-08-14T06:45:48.006Z,59.34
2023-08-14T06:48:15.695Z,58.89
2023-08-14T06:50:42.966Z,58.89
2023-08-14T06:53:10.100Z,59.48
2023-08-14T06:55:37.245Z,59.23
2023-08-14T06:58:05.014Z,58.76
2023-08-14T07:00:32.362Z,59.24
2023-08-14T07:02:59.700Z,59.29
2023-08-14T07:05:26.857Z,58.94
2023-08-14T07:07:53.933Z,58.29
2023-08-14T07:10:21.089Z,58.55
2023-08-14T07:12:49.788Z,58.42
2023-08-14T07:15:16.971Z,58.40
2023-08-14T07:17:44.259Z,57.57
2023-08-14T07:20:12.228Z,58.28
2023-08-14T07:22:39.989Z,57.45
2023-08-14T07:25:07.589Z,56.92
2023-08-14T07:27:35.004Z,57.01
2023-08-14T07:30:02.163Z,56.63
2023-08-14T07:32:29.390Z,57.07
2023-08-14T07:34:56.722Z,57.59
2023-08-14T07:37:28.742Z,58.13
2023-08-14T07:39:56.090Z,58.44
2023-08-14T07:42:23.338Z,58.76
2023-08-14T07:44:53.328Z,58.55
2023-08-14T07:47:20.620Z,58.81
2023-08-14T07:49:47.969Z,59.27
2023-08-14T07:52:15.145Z,60.04
2023-08-14T07:54:42.262Z,60.92
2023-08-14T07:57:09.488Z,61.63
2023-08-14T07:59:36.563Z,62.19
2023-08-14T08:02:03.746Z,61.57
2023-08-14T08:04:40.983Z,61.24
2023-08-14T08:07:11.094Z,61.35
2023-08-14T08:09:41.518Z,60.61
2023-08-14T08:12:09.231Z,61.16
2023-08-14T08:14:36.862Z,60.56
2023-08-14T08:17:04.232Z,59.48
2023-08-14T08:19:31.397Z,59.70
2023-08-14T08:21:58.653Z,59.35
2023-08-14T08:24:25.710Z,58.90
2023-08-14T08:26:52.912Z,58.19
2023-08-14T08:29:20.549Z,58.43
2023-08-14T08:31:47.710Z,58.46
2023-08-14T08:34:14.890Z,57.80
2023-08-14T08:36:42.131Z,58.25
2023-08-14T08:39:09.248Z,58.19
2023-08-14T08:41:39.980Z,58.51
2023-08-14T08:44:26.902Z,58.45
2023-08-14T08:47:08.601Z,58.14
2023-08-14T08:49:36.955Z,58.49
2023-08-14T08:52:05.169Z,59.39
2023-08-14T08:54:36.010Z,59.30
2023-08-14T08:57:06.213Z,60.07
2023-08-14T08:59:34.380Z,60.34
2023-08-14T09:02:01.948Z,60.37
2023-08-14T09:04:29.315Z,61.24
2023-08-14T09:06:57.087Z,60.89
2023-08-14T09:09:24.590Z,60.35
2023-08-14T09:11:51.724Z,60.04
2023-08-14T09:14:19.396Z,60.32
2023-08-14T09:16:53.330Z,60.82
2023-08-14T09:19:21.345Z,60.36
2023-08-14T09:21:48.534Z,60.94
2023-08-14T09:24:19.198Z,60.75
2023-08-14T09:26:46.645Z,60.68
2023-08-14T09:31:46.283Z,58.91
2023-08-14T09:34:19.153Z,58.52
2023-08-14T09:36:48.875Z,58.18
2023-08-14T09:39:18.945Z,58.12
2023-08-14T09:41:52.641Z,56.65
2023-08-14T09:44:21.489Z,55.83
2023-08-14T09:46:53.544Z,54.56
2023-08-14T09:49:20.828Z,53.98
2023-08-14T09:51:58.647Z,52.85
2023-08-14T09:54:34.623Z,52.13
2023-08-14T09:57:08.683Z,51.37
2023-08-14T09:59:37.635Z,50.60
2023-08-14T10:02:09.932Z,51.15
2023-08-14T10:04:38.562Z,51.71
2023-08-14T10:07:06.836Z,52.45
2023-08-14T10:09:36.118Z,51.60
2023-08-14T10:12:12.657Z,51.24
2023-08-14T10:14:46.827Z,52.43
2023-08-14T10:17:21.143Z,51.31
2023-08-14T10:19:53.841Z,51.46
2023-08-14T10:22:24.116Z,53.55
2023-08-14T10:24:53.519Z,53.80
2023-08-14T10:27:21.648Z,54.45
2023-08-14T10:29:50.248Z,54.84
2023-08-14T10:32:18.391Z,55.72
2023-08-14T10:34:46.337Z,55.83
2023-08-14T10:37:41.801Z,56.12
2023-08-14T10:40:22.383Z,56.96
2023-08-14T10:42:54.486Z,57.13
2023-08-14T10:45:27.246Z,57.13
2023-08-14T10:48:00.048Z,57.52
2023-08-14T10:50:30.035Z,58.55
2023-08-14T10:52:58.219Z,59.38
2023-08-14T10:55:38.902Z,59.39
2023-08-14T10:58:32.669Z,60.33
2023-08-14T11:01:07.496Z,61.93
2023-08-14T11:03:55.082Z,62.77
2023-08-14T11:06:46.707Z,63.22
2023-08-14T11:09:16.594Z,62.87
2023-08-14T11:11:49.792Z,63.30
2023-08-14T11:14:17.158Z,62.97
2023-08-14T11:16:50.793Z,63.14
2023-08-14T11:19:20.379Z,61.53
2023-08-14T11:21:50.684Z,57.23
2023-08-14T11:24:18.096Z,53.96
2023-08-14T11:26:45.260Z,51.49
2023-08-14T11:29:12.486Z,48.84
2023-08-14T11:31:41.965Z,45.82
2023-08-14T11:34:15.925Z,41.97
2023-08-14T11:37:06.628Z,38.25
2023-08-14T11:39:35.758Z,35.49
2023-08-14T11:42:04.824Z,33.46
2023-08-14T11:44:33.256Z,33.42
2023-08-14T11:47:00.714Z,36.51
2023-08-14T11:49:29.700Z,38.40
2023-08-14T11:51:56.983Z,40.71
2023-08-14T11:54:26.222Z,43.86
2023-08-14T11:56:54.264Z,44.43
2023-08-14T11:59:21.725Z,45.67
2023-08-14T12:01:49.261Z,47.71
2023-08-14T12:04:16.469Z,49.04
2023-08-14T12:06:44.314Z,49.81
2023-08-14T12:09:13.024Z,50.24
2023-08-14T12:11:40.593Z,51.89
2023-08-14T12:14:08.712Z,52.50
2023-08-14T12:16:42.014Z,53.08
2023-08-14T12:19:13.614Z,53.74
2023-08-14T12:21:41.142Z,54.26
2023-08-14T12:24:08.643Z,54.09
2023-08-14T12:26:43.539Z,54.03
2023-08-14T12:29:11.354Z,53.19
2023-08-14T12:31:38.798Z,52.88
2023-08-14T12:34:07.734Z,51.90
2023-08-14T12:36:36.094Z,51.11
2023-08-14T12:39:03.301Z,51.60
2023-08-14T12:41:30.672Z,51.68
2023-08-14T12:43:58.096Z,52.76
2023-08-14T12:46:25.294Z,53.00
2023-08-14T12:48:52.379Z,53.15
2023-08-14T12:51:19.460Z,52.49
2023-08-14T12:53:46.711Z,52.62
2023-08-14T12:56:18.233Z,52.08
2023-08-14T13:01:16.354Z,52.13
2023-08-14T13:03:43.863Z,52.55
2023-08-14T13:06:11.629Z,53.09
2023-08-14T13:08:39.394Z,53.50
2023-08-14T13:11:06.562Z,53.86
2023-08-14T13:13:33.727Z,54.43
2023-08-14T13:16:02.645Z,54.83
2023-08-14T13:18:30.192Z,55.22
2023-08-14T13:20:57.575Z,55.82
2023-08-14T13:23:24.893Z,56.36
2023-08-14T13:25:52.329Z,56.38
2023-08-14T13:28:19.499Z,56.25
2023-08-14T13:30:46.758Z,56.25
2023-08-14T13:33:13.952Z,56.08
2023-08-14T13:35:41.691Z,56.16
2023-08-14T13:38:08.862Z,55.14
2023-08-14T13:40:36.611Z,55.62
2023-08-14T13:43:04.418Z,56.21
2023-08-14T13:45:32.051Z,56.29
2023-08-14T13:47:59.530Z,53.11
2023-08-14T13:50:33.213Z,46.95
2023-08-14T13:53:02.888Z,40.98
2023-08-14T13:55:31.790Z,35.23
2023-08-14T13:57:59.534Z,31.31
2023-08-14T14:00:29.656Z,32.34
2023-08-14T14:03:00.821Z,33.36
2023-08-14T14:05:29.302Z,36.57
2023-08-14T14:07:57.980Z,37.12
2023-08-14T14:10:26.708Z,37.30
2023-08-14T14:15:24.725Z,39.30
2023-08-14T14:17:52.048Z,41.54
2023-08-14T14:20:20.113Z,42.73
2023-08-14T14:22:47.195Z,43.88
2023-08-14T14:25:14.629Z,45.79
2023-08-14T14:27:42.229Z,45.93
2023-08-14T14:30:10.232Z,45.84
2023-08-14T14:32:37.659Z,46.26
2023-08-14T14:35:05.237Z,46.76
2023-08-14T14:37:32.490Z,47.01
2023-08-14T14:39:59.783Z,47.31
2023-08-14T14:42:27.203Z,48.21
2023-08-14T14:44:55.766Z,48.54
2023-08-14T14:47:25.000Z,49.00
2023-08-14T14:49:53.288Z,48.70
2023-08-14T14:52:20.597Z,48.21
2023-08-14T14:54:47.676Z,50.62
2023-08-14T14:57:15.059Z,49.54
2023-08-14T14:59:43.549Z,49.72
2023-08-14T15:02:23.469Z,49.92
2023-08-14T15:04:55.296Z,48.88
2023-08-14T15:07:22.796Z,44.50
2023-08-14T15:09:49.962Z,39.87
2023-08-14T15:12:17.343Z,36.70
2023-08-14T15:14:44.426Z,32.44
2023-08-14T15:17:12.081Z,29.01
2023-08-14T15:19:39.679Z,26.34
2023-08-14T15:22:06.816Z,25.03
2023-08-14T15:24:33.964Z,25.77
2023-08-14T15:27:01.204Z,24.58
2023-08-14T15:29:28.320Z,25.15
2023-08-14T15:31:55.402Z,24.75
2023-08-14T15:34:22.596Z,23.69
2023-08-14T15:36:49.655Z,24.65
2023-08-14T15:39:16.743Z,25.62
2023-08-14T15:41:43.938Z,26.12
2023-08-14T15:44:11.336Z,25.32
2023-08-14T15:46:38.498Z,23.90
2023-08-14T15:49:05.666Z,22.17
2023-08-14T15:51:32.771Z,20.90
2023-08-14T15:53:59.906Z,20.39
2023-08-14T15:56:27.132Z,20.09
2023-08-14T15:58:54.249Z,18.90
2023-08-14T16:01:21.548Z,18.79
2023-08-14T16:03:48.901Z,17.96
2023-08-14T16:06:16.021Z,17.62
2023-08-14T16:08:43.288Z,17.45
2023-08-14T16:11:10.476Z,17.00
2023-08-14T16:13:37.725Z,16.82
2023-08-14T16:16:05.186Z,16.63
2023-08-14T16:18:33.251Z,16.65
2023-08-14T16:21:00.932Z,15.97
2023-08-14T16:23:28.032Z,16.47
2023-08-14T16:25:55.294Z,17.22
2023-08-14T16:28:22.858Z,17.15
2023-08-14T16:30:50.181Z,17.21
2023-08-14T16:33:17.405Z,17.43
2023-08-14T16:35:44.661Z,17.78
2023-08-14T16:38:11.940Z,17.45
2023-08-14T16:40:43.742Z,18.12
2023-08-14T16:43:11.573Z,17.80
2023-08-14T16:45:39.531Z,18.03
2023-08-14T16:48:07.239Z,18.29
2023-08-14T16:50:39.543Z,18.38
2023-08-14T16:53:07.178Z,20.24
2023-08-14T16:55:35.071Z,21.32
2023-08-14T16:58:03.050Z,21.94
2023-08-14T17:00:33.796Z,21.73
2023-08-14T17:03:03.781Z,21.69
2023-08-14T17:05:31.361Z,21.27
2023-08-14T17:07:58.654Z,21.42
2023-08-14T17:10:26.142Z,21.57
2023-08-14T17:12:53.373Z,21.87
2023-08-14T17:15:20.523Z,22.15
2023-08-14T17:17:47.737Z,22.38
2023-08-14T17:20:14.981Z,22.63
2023-08-14T17:22:42.833Z,21.89
2023-08-14T17:25:10.442Z,22.16
2023-08-14T17:27:37.781Z,22.46
2023-08-14T17:30:05.470Z,23.08
2023-08-14T17:32:33.891Z,22.53
2023-08-14T17:35:01.144Z,23.17
2023-08-14T17:37:28.264Z,23.35
2023-08-14T17:39:56.020Z,23.41
2023-08-14T17:42:23.272Z,23.58
2023-08-14T17:44:50.476Z,23.90
2023-08-14T17:47:17.990Z,23.82
2023-08-14T17:49:45.361Z,24.11
2023-08-14T17:52:12.420Z,24.94
2023-08-14T17:54:39.770Z,24.99
2023-08-14T17:57:06.887Z,25.46
2023-08-14T17:59:34.019Z,26.09
2023-08-14T18:02:01.339Z,27.73
2023-08-14T18:04:28.443Z,28.13
2023-08-14T18:06:56.070Z,28.48
2023-08-14T18:09:23.433Z,30.09
2023-08-14T18:11:50.623Z,31.29
2023-08-14T18:14:17.875Z,33.34
2023-08-14T18:16:45.001Z,34.86
2023-08-14T18:19:28.599Z,36.39
2023-08-14T18:21:57.623Z,37.45
2023-08-14T18:24:24.776Z,38.49
2023-08-14T18:26:51.924Z,40.36
2023-08-14T18:29:19.153Z,41.16
2023-08-14T18:31:46.493Z,42.38
2023-08-14T18:34:13.930Z,42.82
2023-08-14T18:36:41.090Z,43.82
2023-08-14T18:39:08.259Z,44.00
2023-08-14T18:41:38.047Z,44.85
2023-08-14T18:44:05.921Z,45.55
2023-08-14T18:46:33.187Z,46.40
2023-08-14T18:49:00.417Z,46.81
2023-08-14T18:51:27.559Z,47.22
2023-08-14T18:53:55.226Z,47.64
2023-08-14T18:56:22.305Z,47.88
2023-08-14T18:58:51.040Z,48.42
2023-08-14T19:01:18.360Z,48.97
2023-08-14T19:03:45.534Z,49.48
2023-08-14T19:06:12.766Z,49.95
2023-08-14T19:08:40.445Z,50.58
2023-08-14T19:11:07.699Z,50.41
2023-08-14T19:13:34.984Z,50.95
2023-08-14T19:16:02.248Z,50.95
2023-08-14T19:18:29.830Z,51.13
2023-08-14T19:20:58.042Z,51.58
2023-08-14T19:23:25.304Z,52.01
2023-08-14T19:25:53.044Z,52.19
2023-08-14T19:28:22.377Z,52.59
2023-08-14T19:30:51.085Z,52.92
2023-08-14T19:33:18.275Z,53.28
2023-08-14T19:35:45.505Z,53.06
2023-08-14T19:38:12.798Z,53.79
2023-08-14T19:40:39.939Z,54.34
2023-08-14T19:43:07.051Z,54.39
2023-08-14T19:45:36.725Z,55.38
2023-08-14T19:48:05.856Z,55.70
2023-08-14T19:50:34.107Z,56.11
2023-08-14T19:53:04.411Z,56.24
2023-08-14T19:55:31.513Z,56.77
2023-08-14T19:57:58.741Z,56.74
2023-08-14T20:00:26.295Z,57.02
2023-08-14T20:02:54.274Z,57.62
2023-08-14T20:05:21.677Z,57.56
2023-08-14T20:07:48.892Z,57.81
2023-08-14T20:10:17.140Z,57.91
2023-08-14T20:12:44.776Z,58.16
2023-08-14T20:15:12.483Z,58.19
2023-08-14T20:17:39.926Z,58.44
2023-08-14T20:20:08.287Z,58.71
2023-08-14T20:22:35.394Z,58.58
2023-08-14T20:25:02.753Z,58.88
2023-08-14T20:27:29.897Z,59.30
2023-08-14T20:29:57.150Z,59.48
2023-08-14T20:32:24.292Z,59.57
2023-08-14T20:34:51.437Z,59.95
2023-08-14T20:37:18.801Z,59.81
2023-08-14T20:39:47.442Z,60.56
2023-08-14T20:42:14.521Z,60.95
2023-08-14T20:44:41.760Z,61.29
2023-08-14T20:47:09.620Z,61.05
2023-08-14T20:49:36.704Z,61.34
2023-08-14T20:52:04.733Z,60.95
2023-08-14T20:54:32.081Z,61.47
2023-08-14T20:56:59.350Z,61.60
2023-08-14T20:59:26.520Z,61.65
2023-08-14T21:01:54.762Z,61.72
2023-08-14T21:04:22.574Z,61.95
2023-08-14T21:06:49.846Z,62.10
2023-08-14T21:09:17.034Z,62.00
2023-08-14T21:11:44.164Z,62.45
2023-08-14T21:14:11.291Z,62.57
2023-08-14T21:16:38.542Z,62.24
2023-08-14T21:19:05.914Z,62.37
2023-08-14T21:21:33.174Z,62.79
2023-08-14T21:24:00.329Z,62.89
2023-08-14T21:26:27.764Z,62.54
2023-08-14T21:28:54.982Z,62.96
2023-08-14T21:31:22.075Z,62.88
2023-08-14T21:33:50.673Z,62.97
2023-08-14T21:36:17.936Z,63.31
2023-08-14T21:38:45.066Z,63.44
2023-08-14T21:41:12.375Z,63.95
2023-08-14T21:43:40.091Z,64.32
2023-08-14T21:46:07.236Z,64.08
2023-08-14T21:48:34.348Z,64.58
2023-08-14T21:51:01.556Z,64.20
2023-08-14T21:53:28.651Z,64.17
2023-08-14T21:55:56.017Z,64.30
2023-08-14T21:58:23.088Z,64.29
2023-08-14T22:00:50.622Z,64.66
2023-08-14T22:03:17.787Z,64.56
2023-08-14T22:05:44.938Z,64.71
2023-08-14T22:08:12.096Z,64.80
2023-08-14T22:10:39.145Z,65.13
2023-08-14T22:13:06.208Z,65.36
2023-08-14T22:15:44.869Z,66.06
2023-08-14T22:18:14.110Z,65.88
2023-08-14T22:20:41.977Z,66.42
2023-08-14T22:23:11.635Z,66.45
2023-08-14T22:25:40.456Z,66.20
2023-08-14T22:28:07.696Z,67.00
2023-08-14T22:30:34.847Z,67.17
2023-08-14T22:33:02.146Z,67.28
2023-08-14T22:35:29.512Z,67.00
2023-08-14T22:37:57.344Z,67.31
2023-08-14T22:40:24.626Z,67.91
2023-08-14T22:42:51.693Z,67.57
2023-08-14T22:45:18.838Z,67.91
2023-08-14T22:47:45.992Z,68.59
2023-08-14T22:50:13.089Z,68.17
2023-08-14T22:52:40.188Z,68.08
2023-08-14T22:55:07.822Z,68.32
2023-08-14T22:57:35.117Z,68.35
2023-08-14T23:00:02.270Z,68.06
2023-08-14T23:02:29.561Z,68.24
2023-08-14T23:04:57.324Z,68.21
2023-08-14T23:07:24.578Z,68.43
2023-08-14T23:09:51.719Z,68.58
2023-08-14T23:12:18.873Z,68.92
2023-08-14T23:14:45.997Z,69.03
2023-08-14T23:17:13.106Z,68.59
2023-08-14T23:19:40.220Z,68.71
2023-08-14T23:22:07.518Z,68.50
2023-08-14T23:24:34.656Z,68.75
2023-08-14T23:27:01.824Z,68.81
2023-08-14T23:29:29.028Z,68.99
2023-08-14T23:31:56.142Z,69.13
2023-08-14T23:34:23.430Z,69.00
2023-08-14T23:36:50.638Z,69.13
2023-08-14T23:39:19.391Z,69.18
2023-08-14T23:41:46.768Z,69.26
2023-08-14T23:44:14.099Z,69.28
2023-08-14T23:46:41.373Z,69.66
2023-08-14T23:49:08.566Z,69.59
2023-08-14T23:54:23.420Z,69.83
2023-08-14T23:56:50.551Z,70.07
2023-08-14T23:59:19.260Z,70.14
